Main page
METAR-TAF:

METAR-TAF

Airports :

Athens, Greece

Athens International Airport

latitude: 37-56N, longitude: 023-56E, elevation: 94 m

Current weather observation

The report was made 41 minutes ago, at 13:20 UTC
Wind 15 kt from the Northeast
Temperature 18°C
Humidity 49%
Pressure 1020 hPa
Visibility 10 km or more
no clouds below 1500 m and no cumulonimbus

METAR: LGAV 241320Z 05015KT CAVOK 18/07 Q1020 NOSIG

Time: 16:01 (14:01 UTC)

Forecast

The report was made 3 hours and 1 minutes ago, at 11:00 UTC
Forecast valid from 24 at 12 UTC to 25 at 12 UTC
Wind 15 kt from the North/Northeast
Visibility 10 km or more
Few clouds at a height of 2500 ft
Temporary
from 24 at 12 UTC to 24 at 20 UTC
Wind 15 kt from the North/Northeast with gusts up to 25 kt

TAF: LGAV 241100Z 2412/2512 03015KT 9999 FEW025 TEMPO 2412/2420 03015G25KT

Weather observations and forecasts of more than 4000 airports (METAR and TAF reports).

The available stations are represented by yellow and red dots on the map.

Hover mouse over dot to see the name of the station.

Then click to see weather observations and forecasts.

To change the map : click on the green buttons with a black cross to zoom in, on the green button with a dash to zoom out, or on the green arrows for adjacent maps.


METAR-TAF: